Terminal Aerodrome Forecast
Issued by NWS

Home | Current Version | Previous Version | Text Only | Print | Product List | Glossary On
Versions: 1 2 3 4 5 6 7 8 9 10 11
096
FTUS42 TJSJ 262338
TAFJPS
TAF
TJPS 262338Z 2700/2724 05005KT P6SM FEW030
     FM271300 14010G15KT P6SM SCT030 SCT060
     FM272330 09007KT P6SM FEW030
      AMD NOT SKED TIL 270300=

USA.gov is the U.S. government's official web portal to all federal, state and local government web resources and services.